createdAt,value
2019-02-18T00:04:16.006Z,83.70
2019-02-18T00:09:22.240Z,85.40
2019-02-18T00:14:28.451Z,85.10
2019-02-18T00:19:34.758Z,84.50
2019-02-18T00:24:41.020Z,82.90
2019-02-18T00:29:47.407Z,82.80
2019-02-18T00:34:53.726Z,87.30
2019-02-18T00:39:59.943Z,86.40
2019-02-18T00:45:06.656Z,87.50
2019-02-18T00:50:13.217Z,89.30
2019-02-18T00:55:19.420Z,90.00
2019-02-18T01:00:25.642Z,90.00
2019-02-18T01:05:31.860Z,87.30
2019-02-18T01:10:38.052Z,85.60
2019-02-18T01:15:44.347Z,86.00
2019-02-18T01:20:50.525Z,85.60
2019-02-18T01:25:56.837Z,86.00
2019-02-18T01:31:03.106Z,84.70
2019-02-18T01:36:09.331Z,84.50
2019-02-18T01:41:15.548Z,84.30
2019-02-18T01:46:21.853Z,86.10
2019-02-18T01:51:28.114Z,86.00
2019-02-18T01:56:34.458Z,87.00
2019-02-18T02:01:40.690Z,88.80
2019-02-18T02:06:46.919Z,86.20
2019-02-18T02:11:53.251Z,85.60
2019-02-18T02:17:00.727Z,86.70
2019-02-18T02:22:07.086Z,85.00
2019-02-18T02:27:13.409Z,84.80
2019-02-18T02:32:19.639Z,84.40
2019-02-18T02:37:25.999Z,87.80
2019-02-18T02:42:32.178Z,88.90
2019-02-18T02:47:38.480Z,90.00
2019-02-18T02:52:44.663Z,90.40
2019-02-18T02:57:50.893Z,91.20
2019-02-18T03:02:57.106Z,89.50
2019-02-18T03:08:04.520Z,87.80
2019-02-18T03:13:10.842Z,87.20
2019-02-18T03:18:17.025Z,86.30
2019-02-18T03:23:23.273Z,87.60
2019-02-18T03:29:22.255Z,86.80
2019-02-18T03:34:38.364Z,86.70
2019-02-18T03:39:44.566Z,87.20
2019-02-18T03:44:50.876Z,87.50
2019-02-18T03:49:57.102Z,86.90
2019-02-18T03:55:03.461Z,88.00
2019-02-18T04:00:10.098Z,89.40
2019-02-18T04:05:16.383Z,90.90
2019-02-18T04:10:22.596Z,91.40
2019-02-18T04:15:28.895Z,91.40
2019-02-18T04:20:35.112Z,91.10
2019-02-18T04:25:41.337Z,91.80
2019-02-18T04:30:47.550Z,91.70
2019-02-18T04:35:53.937Z,92.10
2019-02-18T04:41:00.554Z,92.40
2019-02-18T04:46:06.829Z,92.30
2019-02-18T04:51:13.111Z,92.30
2019-02-18T04:56:19.392Z,92.10
2019-02-18T05:01:25.603Z,92.50
2019-02-18T05:06:31.809Z,92.80
2019-02-18T05:11:38.082Z,93.00
2019-02-18T05:16:44.356Z,92.70
2019-02-18T05:21:50.574Z,92.90
2019-02-18T05:26:56.809Z,92.80
2019-02-18T05:32:03.046Z,93.20
2019-02-18T05:37:09.339Z,93.50
2019-02-18T05:42:15.525Z,92.90
2019-02-18T05:47:21.757Z,92.90
2019-02-18T05:52:28.036Z,93.20
2019-02-18T05:57:34.202Z,92.80
2019-02-18T06:02:40.431Z,93.50
2019-02-18T06:07:46.656Z,93.50
2019-02-18T06:12:52.830Z,93.40
2019-02-18T06:17:59.064Z,93.20
2019-02-18T06:23:05.501Z,93.60
2019-02-18T06:28:11.982Z,93.90
2019-02-18T06:33:18.474Z,93.50
2019-02-18T06:38:24.687Z,93.10
2019-02-18T06:43:31.012Z,93.20
2019-02-18T06:48:40.034Z,93.60
2019-02-18T06:53:46.419Z,94.40
2019-02-18T06:59:00.302Z,94.40
2019-02-18T07:04:20.700Z,94.40
2019-02-18T07:09:51.354Z,94.80
2019-02-18T07:14:52.820Z,94.80
2019-02-18T07:20:01.333Z,94.20
2019-02-18T07:25:30.455Z,94.70
2019-02-18T07:30:36.764Z,95.40
2019-02-18T07:35:43.334Z,94.80
2019-02-18T07:40:49.544Z,95.60
2019-02-18T07:45:56.146Z,95.40
2019-02-18T07:51:02.534Z,95.40
2019-02-18T07:56:08.852Z,95.30
2019-02-18T08:01:15.434Z,95.20
2019-02-18T08:06:21.686Z,95.40
2019-02-18T08:11:28.066Z,95.70
2019-02-18T08:16:34.496Z,95.10
2019-02-18T08:21:40.774Z,95.20
2019-02-18T08:26:47.041Z,93.20
2019-02-18T08:31:53.426Z,92.60
2019-02-18T08:36:59.816Z,92.30
2019-02-18T08:42:06.107Z,91.10
2019-02-18T08:47:12.443Z,90.80
2019-02-18T08:52:18.770Z,87.70
2019-02-18T08:57:25.089Z,85.40
2019-02-18T09:02:31.516Z,83.10
2019-02-18T09:07:38.102Z,81.50
2019-02-18T09:12:44.465Z,81.10
2019-02-18T09:17:50.784Z,78.30
2019-02-18T09:23:06.291Z,77.30
2019-02-18T09:28:12.708Z,76.90
2019-02-18T09:33:21.118Z,71.70
2019-02-18T09:38:29.157Z,70.70
2019-02-18T09:43:35.554Z,69.60
2019-02-18T09:48:41.898Z,66.40
2019-02-18T09:53:48.200Z,63.30
2019-02-18T09:58:58.953Z,59.90
2019-02-18T10:04:05.738Z,59.60
2019-02-18T10:09:15.552Z,61.10
2019-02-18T10:14:21.986Z,58.60
2019-02-18T10:19:28.315Z,56.40
2019-02-18T10:24:34.584Z,57.70
2019-02-18T10:29:43.965Z,56.10
2019-02-18T10:34:50.610Z,56.10
2019-02-18T10:39:59.669Z,54.00
2019-02-18T10:45:10.313Z,56.40
2019-02-18T10:50:18.705Z,54.10
2019-02-18T10:55:31.276Z,53.20
2019-02-18T11:00:41.235Z,53.90
2019-02-18T11:05:47.602Z,53.20
2019-02-18T11:10:56.120Z,53.50
2019-02-18T11:16:02.328Z,53.30
2019-02-18T11:21:11.115Z,51.60
2019-02-18T11:26:17.864Z,52.30
2019-02-18T11:31:24.116Z,50.30
2019-02-18T11:36:30.359Z,51.20
2019-02-18T11:41:36.941Z,53.00
2019-02-18T11:46:43.436Z,52.40
2019-02-18T11:51:55.571Z,53.60
2019-02-18T11:57:03.784Z,53.70
2019-02-18T12:02:10.066Z,51.20
2019-02-18T12:07:16.903Z,52.90
2019-02-18T12:12:23.410Z,50.60
2019-02-18T12:17:30.988Z,53.20
2019-02-18T12:22:39.218Z,51.20
2019-02-18T12:27:46.872Z,50.00
2019-02-18T12:32:53.112Z,51.40
2019-02-18T12:37:59.426Z,50.30
2019-02-18T12:43:05.924Z,50.90
2019-02-18T12:48:14.885Z,49.80
2019-02-18T12:53:24.405Z,47.40
2019-02-18T12:58:32.026Z,47.80
2019-02-18T13:03:38.460Z,48.20
2019-02-18T13:08:44.775Z,45.40
2019-02-18T13:13:51.121Z,48.50
2019-02-18T13:18:59.943Z,45.00
2019-02-18T13:24:06.418Z,44.80
2019-02-18T13:29:16.710Z,45.90
2019-02-18T13:34:25.920Z,44.40
2019-02-18T13:39:34.236Z,45.70
2019-02-18T13:44:40.602Z,47.20
2019-02-18T13:49:49.454Z,45.80
2019-02-18T13:54:55.799Z,47.30
2019-02-18T14:00:04.676Z,46.20
2019-02-18T14:05:11.992Z,45.20
2019-02-18T14:10:19.575Z,47.10
2019-02-18T14:15:25.964Z,46.00
2019-02-18T14:20:32.685Z,46.50
2019-02-18T14:25:39.122Z,46.30
2019-02-18T14:30:45.477Z,45.80
2019-02-18T14:35:52.768Z,46.20
2019-02-18T14:41:01.279Z,48.30
2019-02-18T14:46:09.332Z,48.30
2019-02-18T14:51:15.793Z,48.40
2019-02-18T14:56:22.253Z,48.40
2019-02-18T15:01:28.537Z,48.40
2019-02-18T15:06:37.497Z,48.40
2019-02-18T15:11:44.877Z,49.40
2019-02-18T15:16:51.317Z,49.30
2019-02-18T15:22:01.850Z,49.10
2019-02-18T15:27:08.646Z,50.40
2019-02-18T15:32:14.976Z,52.10
2019-02-18T15:37:21.512Z,51.80
2019-02-18T15:42:28.238Z,51.60
2019-02-18T15:47:34.613Z,52.50
2019-02-18T15:52:41.052Z,53.00
2019-02-18T15:57:47.749Z,53.30
2019-02-18T16:02:56.824Z,53.70
2019-02-18T16:08:03.237Z,55.30
2019-02-18T16:13:09.609Z,56.30
2019-02-18T16:18:16.058Z,57.30
2019-02-18T16:23:22.356Z,57.40
2019-02-18T16:28:29.292Z,57.70
2019-02-18T16:33:36.796Z,57.90
2019-02-18T16:38:43.144Z,58.70
2019-02-18T16:43:51.413Z,58.90
2019-02-18T16:48:58.161Z,62.00
2019-02-18T16:54:05.755Z,63.10
2019-02-18T16:59:12.182Z,65.00
2019-02-18T17:04:18.954Z,65.60
2019-02-18T17:09:25.284Z,67.50
2019-02-18T17:14:31.695Z,71.60
2019-02-18T17:19:39.821Z,73.40
2019-02-18T17:24:46.879Z,73.40
2019-02-18T17:29:53.199Z,72.20
2019-02-18T17:35:00.005Z,72.00
2019-02-18T17:40:06.875Z,72.90
2019-02-18T17:45:13.867Z,72.90
2019-02-18T17:50:21.274Z,72.80
2019-02-18T17:55:27.621Z,75.00
2019-02-18T18:00:34.859Z,75.50
2019-02-18T18:05:41.385Z,75.60
2019-02-18T18:10:47.883Z,75.80
2019-02-18T18:15:55.280Z,76.80
2019-02-18T18:21:02.984Z,74.40
2019-02-18T18:26:12.654Z,73.70
2019-02-18T18:31:19.511Z,73.60
2019-02-18T18:36:25.843Z,73.80
2019-02-18T18:41:32.166Z,74.50
2019-02-18T18:46:41.337Z,74.70
2019-02-18T18:51:50.456Z,75.40
2019-02-18T18:56:57.032Z,76.20
2019-02-18T19:02:06.836Z,76.60
2019-02-18T19:07:13.176Z,76.50
2019-02-18T19:12:19.515Z,77.80
2019-02-18T19:17:26.131Z,77.00
2019-02-18T19:22:33.000Z,77.00
2019-02-18T19:27:39.424Z,77.30
2019-02-18T19:32:48.359Z,78.00
2019-02-18T19:37:55.956Z,77.80
2019-02-18T19:43:02.673Z,77.90
2019-02-18T19:48:10.304Z,78.40
2019-02-18T19:53:16.527Z,78.50
2019-02-18T19:58:23.324Z,79.00
2019-02-18T20:03:29.679Z,79.60
2019-02-18T20:08:36.549Z,79.90
2019-02-18T20:13:43.061Z,80.40
2019-02-18T20:18:51.311Z,81.80
2019-02-18T20:23:57.597Z,82.40
2019-02-18T20:29:04.212Z,82.90
2019-02-18T20:34:11.017Z,82.40
2019-02-18T20:39:17.399Z,83.40
2019-02-18T20:44:23.839Z,83.70
2019-02-18T20:49:30.071Z,84.10
2019-02-18T20:54:36.371Z,84.00
2019-02-18T20:59:42.723Z,84.20
2019-02-18T21:04:50.476Z,83.80
2019-02-18T21:09:58.673Z,84.50
2019-02-18T21:15:05.794Z,84.20
2019-02-18T21:20:12.735Z,84.10
2019-02-18T21:25:20.173Z,84.40
2019-02-18T21:30:26.474Z,84.70
2019-02-18T21:35:32.788Z,85.20
2019-02-18T21:40:39.161Z,85.50
2019-02-18T21:45:46.022Z,86.00
2019-02-18T21:50:52.699Z,86.80
2019-02-18T21:55:59.038Z,86.40
2019-02-18T22:01:05.424Z,87.20
2019-02-18T22:06:11.859Z,87.00
2019-02-18T22:11:18.448Z,87.30
2019-02-18T22:16:24.643Z,87.80
2019-02-18T22:21:33.005Z,88.20
2019-02-18T22:26:39.411Z,88.20
2019-02-18T22:31:45.642Z,88.60
2019-02-18T22:36:51.988Z,89.30
2019-02-18T22:41:58.276Z,89.10
2019-02-18T22:47:05.858Z,88.30
2019-02-18T22:52:12.108Z,89.40
2019-02-18T22:57:21.276Z,89.90
2019-02-18T23:02:27.735Z,90.00
2019-02-18T23:07:34.216Z,90.10
2019-02-18T23:12:40.598Z,90.40
2019-02-18T23:17:46.854Z,90.20
2019-02-18T23:22:56.156Z,90.10
2019-02-18T23:28:02.420Z,90.30
2019-02-18T23:33:09.084Z,90.70
2019-02-18T23:38:15.411Z,90.90
2019-02-18T23:43:24.447Z,91.00
2019-02-18T23:48:30.713Z,91.00
2019-02-18T23:53:36.943Z,91.20
2019-02-18T23:58:43.193Z,91.50
